sensor_id;sensor_type;location;lat;lon;timestamp;P1;durP1;ratioP1;P2;durP2;ratioP2
48263;SDS011;34086;51.076;13.722;2023-06-14T00:00:21;6.95;;;4.20;;
48263;SDS011;34086;51.076;13.722;2023-06-14T00:01:22;4.90;;;3.92;;
48263;SDS011;34086;51.076;13.722;2023-06-14T00:02:22;4.78;;;4.10;;
48263;SDS011;34086;51.076;13.722;2023-06-14T00:03:23;6.45;;;4.47;;
48263;SDS011;34086;51.076;13.722;2023-06-14T00:04:24;5.97;;;4.13;;
48263;SDS011;34086;51.076;13.722;2023-06-14T00:05:25;6.13;;;4.15;;
48263;SDS011;34086;51.076;13.722;2023-06-14T00:06:26;5.13;;;4.00;;
48263;SDS011;34086;51.076;13.722;2023-06-14T00:07:35;5.68;;;4.50;;
48263;SDS011;34086;51.076;13.722;2023-06-14T00:08:37;9.63;;;4.50;;
48263;SDS011;34086;51.076;13.722;2023-06-14T00:09:37;6.30;;;4.18;;
48263;SDS011;34086;51.076;13.722;2023-06-14T00:10:38;8.23;;;4.35;;
48263;SDS011;34086;51.076;13.722;2023-06-14T00:11:41;8.35;;;4.50;;
48263;SDS011;34086;51.076;13.722;2023-06-14T00:12:42;5.57;;;4.35;;
48263;SDS011;34086;51.076;13.722;2023-06-14T00:13:42;6.28;;;4.40;;
48263;SDS011;34086;51.076;13.722;2023-06-14T00:14:43;5.80;;;4.47;;
48263;SDS011;34086;51.076;13.722;2023-06-14T00:15:43;6.75;;;4.38;;
48263;SDS011;34086;51.076;13.722;2023-06-14T00:16:45;6.72;;;4.72;;
48263;SDS011;34086;51.076;13.722;2023-06-14T00:17:45;9.15;;;4.63;;
48263;SDS011;34086;51.076;13.722;2023-06-14T00:18:47;6.70;;;4.78;;
48263;SDS011;34086;51.076;13.722;2023-06-14T00:19:48;6.57;;;4.40;;
48263;SDS011;34086;51.076;13.722;2023-06-14T00:20:50;6.88;;;4.45;;
48263;SDS011;34086;51.076;13.722;2023-06-14T00:21:51;5.03;;;4.50;;
48263;SDS011;34086;51.076;13.722;2023-06-14T00:22:53;7.47;;;4.60;;
48263;SDS011;34086;51.076;13.722;2023-06-14T00:23:55;5.53;;;4.40;;
48263;SDS011;34086;51.076;13.722;2023-06-14T00:24:57;7.20;;;4.63;;
48263;SDS011;34086;51.076;13.722;2023-06-14T00:25:58;8.73;;;4.82;;
48263;SDS011;34086;51.076;13.722;2023-06-14T00:26:58;5.63;;;4.50;;
48263;SDS011;34086;51.076;13.722;2023-06-14T00:27:59;6.32;;;4.72;;
48263;SDS011;34086;51.076;13.722;2023-06-14T00:29:00;6.45;;;4.47;;
48263;SDS011;34086;51.076;13.722;2023-06-14T00:30:00;5.13;;;4.60;;
48263;SDS011;34086;51.076;13.722;2023-06-14T00:31:01;6.47;;;4.43;;
48263;SDS011;34086;51.076;13.722;2023-06-14T00:32:02;6.57;;;4.60;;
48263;SDS011;34086;51.076;13.722;2023-06-14T00:33:03;7.70;;;4.63;;
48263;SDS011;34086;51.076;13.722;2023-06-14T00:34:04;5.00;;;4.13;;
48263;SDS011;34086;51.076;13.722;2023-06-14T00:35:04;6.55;;;4.80;;
48263;SDS011;34086;51.076;13.722;2023-06-14T00:36:05;5.57;;;4.32;;
48263;SDS011;34086;51.076;13.722;2023-06-14T00:37:06;6.72;;;4.88;;
48263;SDS011;34086;51.076;13.722;2023-06-14T00:38:07;5.63;;;4.53;;
48263;SDS011;34086;51.076;13.722;2023-06-14T00:39:07;4.95;;;4.20;;
48263;SDS011;34086;51.076;13.722;2023-06-14T00:40:09;6.85;;;4.60;;
48263;SDS011;34086;51.076;13.722;2023-06-14T00:41:11;6.55;;;4.72;;
48263;SDS011;34086;51.076;13.722;2023-06-14T00:42:22;6.88;;;4.75;;
48263;SDS011;34086;51.076;13.722;2023-06-14T00:43:24;6.18;;;4.63;;
48263;SDS011;34086;51.076;13.722;2023-06-14T00:44:25;5.32;;;4.82;;
48263;SDS011;34086;51.076;13.722;2023-06-14T00:45:25;6.32;;;4.80;;
48263;SDS011;34086;51.076;13.722;2023-06-14T00:46:26;6.25;;;4.97;;
48263;SDS011;34086;51.076;13.722;2023-06-14T00:47:28;5.90;;;4.82;;
48263;SDS011;34086;51.076;13.722;2023-06-14T00:48:29;6.68;;;4.70;;
48263;SDS011;34086;51.076;13.722;2023-06-14T00:49:31;6.55;;;4.50;;
48263;SDS011;34086;51.076;13.722;2023-06-14T00:50:32;5.93;;;4.72;;
48263;SDS011;34086;51.076;13.722;2023-06-14T00:51:33;6.60;;;4.88;;
48263;SDS011;34086;51.076;13.722;2023-06-14T00:52:34;5.75;;;4.63;;
48263;SDS011;34086;51.076;13.722;2023-06-14T00:53:36;6.13;;;4.35;;
48263;SDS011;34086;51.076;13.722;2023-06-14T00:54:36;6.13;;;4.55;;
48263;SDS011;34086;51.076;13.722;2023-06-14T00:55:38;6.88;;;4.70;;
48263;SDS011;34086;51.076;13.722;2023-06-14T00:56:38;6.05;;;4.75;;
48263;SDS011;34086;51.076;13.722;2023-06-14T00:57:40;6.32;;;4.63;;
48263;SDS011;34086;51.076;13.722;2023-06-14T00:58:41;7.30;;;4.90;;
48263;SDS011;34086;51.076;13.722;2023-06-14T00:59:46;9.48;;;4.90;;
48263;SDS011;34086;51.076;13.722;2023-06-14T01:00:47;6.15;;;4.90;;
48263;SDS011;34086;51.076;13.722;2023-06-14T01:01:48;5.35;;;4.60;;
48263;SDS011;34086;51.076;13.722;2023-06-14T01:02:49;6.07;;;4.90;;
48263;SDS011;34086;51.076;13.722;2023-06-14T01:03:50;7.15;;;4.90;;
48263;SDS011;34086;51.076;13.722;2023-06-14T01:04:51;6.03;;;4.80;;
48263;SDS011;34086;51.076;13.722;2023-06-14T01:05:53;6.05;;;4.70;;
48263;SDS011;34086;51.076;13.722;2023-06-14T01:07:07;6.32;;;4.72;;
48263;SDS011;34086;51.076;13.722;2023-06-14T01:08:36;5.20;;;4.70;;
48263;SDS011;34086;51.076;13.722;2023-06-14T01:11:33;7.05;;;5.32;;
48263;SDS011;34086;51.076;13.722;2023-06-14T01:13:47;7.70;;;4.93;;
48263;SDS011;34086;51.076;13.722;2023-06-14T01:14:50;7.45;;;4.60;;
48263;SDS011;34086;51.076;13.722;2023-06-14T01:15:53;8.52;;;5.10;;
48263;SDS011;34086;51.076;13.722;2023-06-14T01:16:56;8.30;;;5.05;;
48263;SDS011;34086;51.076;13.722;2023-06-14T01:17:59;6.68;;;4.95;;
48263;SDS011;34086;51.076;13.722;2023-06-14T01:19:03;6.78;;;4.95;;
48263;SDS011;34086;51.076;13.722;2023-06-14T01:20:06;8.20;;;5.30;;
48263;SDS011;34086;51.076;13.722;2023-06-14T01:21:23;7.05;;;5.15;;
48263;SDS011;34086;51.076;13.722;2023-06-14T01:22:28;6.88;;;5.30;;
48263;SDS011;34086;51.076;13.722;2023-06-14T01:23:30;6.32;;;5.13;;
48263;SDS011;34086;51.076;13.722;2023-06-14T01:24:32;5.93;;;5.32;;
48263;SDS011;34086;51.076;13.722;2023-06-14T01:25:34;8.43;;;5.15;;
48263;SDS011;34086;51.076;13.722;2023-06-14T01:26:37;8.85;;;5.30;;
48263;SDS011;34086;51.076;13.722;2023-06-14T01:27:39;9.18;;;5.50;;
48263;SDS011;34086;51.076;13.722;2023-06-14T01:28:39;6.95;;;5.40;;
48263;SDS011;34086;51.076;13.722;2023-06-14T01:29:40;9.23;;;5.60;;
48263;SDS011;34086;51.076;13.722;2023-06-14T01:30:49;6.00;;;5.13;;
48263;SDS011;34086;51.076;13.722;2023-06-14T01:31:53;8.27;;;5.30;;
48263;SDS011;34086;51.076;13.722;2023-06-14T01:32:54;7.40;;;5.75;;
48263;SDS011;34086;51.076;13.722;2023-06-14T01:33:56;5.70;;;5.18;;
48263;SDS011;34086;51.076;13.722;2023-06-14T01:34:57;7.22;;;5.47;;
48263;SDS011;34086;51.076;13.722;2023-06-14T01:36:01;7.88;;;5.28;;
48263;SDS011;34086;51.076;13.722;2023-06-14T01:37:04;5.68;;;5.15;;
48263;SDS011;34086;51.076;13.722;2023-06-14T01:38:06;9.18;;;8.27;;
48263;SDS011;34086;51.076;13.722;2023-06-14T01:39:07;9.13;;;7.22;;
48263;SDS011;34086;51.076;13.722;2023-06-14T01:40:09;7.35;;;5.75;;
48263;SDS011;34086;51.076;13.722;2023-06-14T01:41:11;7.75;;;5.60;;
48263;SDS011;34086;51.076;13.722;2023-06-14T01:42:13;6.80;;;5.38;;
48263;SDS011;34086;51.076;13.722;2023-06-14T01:43:15;9.82;;;6.40;;
48263;SDS011;34086;51.076;13.722;2023-06-14T01:44:17;6.60;;;5.90;;
48263;SDS011;34086;51.076;13.722;2023-06-14T01:45:19;7.45;;;5.82;;
48263;SDS011;34086;51.076;13.722;2023-06-14T01:46:20;5.80;;;5.20;;
48263;SDS011;34086;51.076;13.722;2023-06-14T01:47:21;6.45;;;5.20;;
48263;SDS011;34086;51.076;13.722;2023-06-14T01:48:22;6.43;;;5.13;;
48263;SDS011;34086;51.076;13.722;2023-06-14T01:49:23;7.28;;;4.85;;
48263;SDS011;34086;51.076;13.722;2023-06-14T01:50:24;7.32;;;5.25;;
48263;SDS011;34086;51.076;13.722;2023-06-14T01:51:28;6.03;;;5.05;;
48263;SDS011;34086;51.076;13.722;2023-06-14T01:52:29;7.80;;;5.22;;
48263;SDS011;34086;51.076;13.722;2023-06-14T01:53:30;6.25;;;4.85;;
48263;SDS011;34086;51.076;13.722;2023-06-14T01:54:30;5.75;;;5.00;;
48263;SDS011;34086;51.076;13.722;2023-06-14T01:55:31;5.75;;;5.10;;
48263;SDS011;34086;51.076;13.722;2023-06-14T01:56:40;7.43;;;5.20;;
48263;SDS011;34086;51.076;13.722;2023-06-14T01:57:41;7.55;;;5.10;;
48263;SDS011;34086;51.076;13.722;2023-06-14T01:58:41;5.85;;;5.25;;
48263;SDS011;34086;51.076;13.722;2023-06-14T01:59:42;6.55;;;5.00;;
48263;SDS011;34086;51.076;13.722;2023-06-14T02:00:43;6.72;;;5.15;;
48263;SDS011;34086;51.076;13.722;2023-06-14T02:01:44;5.78;;;5.03;;
48263;SDS011;34086;51.076;13.722;2023-06-14T02:02:46;7.45;;;4.93;;
48263;SDS011;34086;51.076;13.722;2023-06-14T02:03:47;7.45;;;5.55;;
48263;SDS011;34086;51.076;13.722;2023-06-14T02:04:50;5.88;;;5.22;;
48263;SDS011;34086;51.076;13.722;2023-06-14T02:05:50;7.05;;;5.28;;
48263;SDS011;34086;51.076;13.722;2023-06-14T02:06:51;6.18;;;5.03;;
48263;SDS011;34086;51.076;13.722;2023-06-14T02:07:52;6.25;;;4.93;;
48263;SDS011;34086;51.076;13.722;2023-06-14T02:08:55;6.38;;;5.40;;
48263;SDS011;34086;51.076;13.722;2023-06-14T02:09:56;6.65;;;5.30;;
48263;SDS011;34086;51.076;13.722;2023-06-14T02:10:57;6.32;;;5.53;;
48263;SDS011;34086;51.076;13.722;2023-06-14T02:11:57;5.60;;;5.00;;
48263;SDS011;34086;51.076;13.722;2023-06-14T02:12:58;5.65;;;5.05;;
48263;SDS011;34086;51.076;13.722;2023-06-14T02:13:58;6.80;;;5.00;;
48263;SDS011;34086;51.076;13.722;2023-06-14T02:15:00;6.25;;;5.40;;
48263;SDS011;34086;51.076;13.722;2023-06-14T02:16:00;7.25;;;5.15;;
48263;SDS011;34086;51.076;13.722;2023-06-14T02:17:02;6.18;;;5.38;;
48263;SDS011;34086;51.076;13.722;2023-06-14T02:18:03;5.35;;;4.85;;
48263;SDS011;34086;51.076;13.722;2023-06-14T02:19:06;5.65;;;4.90;;
48263;SDS011;34086;51.076;13.722;2023-06-14T02:20:10;7.57;;;5.20;;
48263;SDS011;34086;51.076;13.722;2023-06-14T02:21:11;7.65;;;5.18;;
48263;SDS011;34086;51.076;13.722;2023-06-14T02:22:12;6.93;;;5.50;;
48263;SDS011;34086;51.076;13.722;2023-06-14T02:23:14;7.40;;;5.28;;
48263;SDS011;34086;51.076;13.722;2023-06-14T02:24:15;6.68;;;5.18;;
48263;SDS011;34086;51.076;13.722;2023-06-14T02:25:16;6.43;;;5.32;;
48263;SDS011;34086;51.076;13.722;2023-06-14T02:26:16;8.77;;;5.72;;
48263;SDS011;34086;51.076;13.722;2023-06-14T02:27:17;7.55;;;5.00;;
48263;SDS011;34086;51.076;13.722;2023-06-14T02:28:18;6.28;;;5.40;;
48263;SDS011;34086;51.076;13.722;2023-06-14T02:29:18;6.97;;;5.50;;
48263;SDS011;34086;51.076;13.722;2023-06-14T02:30:19;6.05;;;5.10;;
48263;SDS011;34086;51.076;13.722;2023-06-14T02:31:19;6.43;;;5.20;;
48263;SDS011;34086;51.076;13.722;2023-06-14T02:32:22;6.03;;;5.32;;
48263;SDS011;34086;51.076;13.722;2023-06-14T02:33:23;6.50;;;4.97;;
48263;SDS011;34086;51.076;13.722;2023-06-14T02:34:26;6.30;;;5.40;;
48263;SDS011;34086;51.076;13.722;2023-06-14T02:35:27;6.00;;;5.40;;
48263;SDS011;34086;51.076;13.722;2023-06-14T02:36:29;8.15;;;5.50;;
48263;SDS011;34086;51.076;13.722;2023-06-14T02:37:30;5.97;;;5.10;;
48263;SDS011;34086;51.076;13.722;2023-06-14T02:38:31;6.43;;;5.28;;
48263;SDS011;34086;51.076;13.722;2023-06-14T02:39:32;7.28;;;5.20;;
48263;SDS011;34086;51.076;13.722;2023-06-14T02:40:32;6.88;;;4.97;;
48263;SDS011;34086;51.076;13.722;2023-06-14T02:41:33;6.82;;;5.53;;
48263;SDS011;34086;51.076;13.722;2023-06-14T02:42:33;6.28;;;5.40;;
48263;SDS011;34086;51.076;13.722;2023-06-14T02:43:34;7.05;;;5.43;;
48263;SDS011;34086;51.076;13.722;2023-06-14T02:44:35;6.22;;;5.25;;
48263;SDS011;34086;51.076;13.722;2023-06-14T02:45:36;6.32;;;5.22;;
48263;SDS011;34086;51.076;13.722;2023-06-14T02:46:36;6.03;;;5.40;;
48263;SDS011;34086;51.076;13.722;2023-06-14T02:47:37;8.02;;;5.43;;
48263;SDS011;34086;51.076;13.722;2023-06-14T02:48:38;6.18;;;5.25;;
48263;SDS011;34086;51.076;13.722;2023-06-14T02:49:42;6.95;;;5.50;;
48263;SDS011;34086;51.076;13.722;2023-06-14T02:50:42;5.85;;;5.25;;
48263;SDS011;34086;51.076;13.722;2023-06-14T02:51:43;7.03;;;5.68;;
48263;SDS011;34086;51.076;13.722;2023-06-14T02:52:44;6.53;;;5.40;;
48263;SDS011;34086;51.076;13.722;2023-06-14T02:53:45;6.72;;;5.70;;
48263;SDS011;34086;51.076;13.722;2023-06-14T02:54:46;6.53;;;5.82;;
48263;SDS011;34086;51.076;13.722;2023-06-14T02:55:47;6.55;;;5.63;;
48263;SDS011;34086;51.076;13.722;2023-06-14T02:56:49;6.82;;;5.35;;
48263;SDS011;34086;51.076;13.722;2023-06-14T02:57:50;8.55;;;5.32;;
48263;SDS011;34086;51.076;13.722;2023-06-14T02:58:51;8.35;;;5.63;;
48263;SDS011;34086;51.076;13.722;2023-06-14T02:59:52;8.43;;;5.57;;
48263;SDS011;34086;51.076;13.722;2023-06-14T03:00:53;6.97;;;5.70;;
48263;SDS011;34086;51.076;13.722;2023-06-14T03:01:53;7.78;;;5.72;;
48263;SDS011;34086;51.076;13.722;2023-06-14T03:02:54;8.23;;;6.68;;
48263;SDS011;34086;51.076;13.722;2023-06-14T03:03:55;8.82;;;6.82;;
48263;SDS011;34086;51.076;13.722;2023-06-14T03:04:55;7.60;;;5.93;;
48263;SDS011;34086;51.076;13.722;2023-06-14T03:05:56;6.97;;;5.50;;
48263;SDS011;34086;51.076;13.722;2023-06-14T03:07:01;11.35;;;5.70;;
48263;SDS011;34086;51.076;13.722;2023-06-14T03:08:02;6.68;;;5.47;;
48263;SDS011;34086;51.076;13.722;2023-06-14T03:09:03;10.77;;;6.10;;
48263;SDS011;34086;51.076;13.722;2023-06-14T03:10:05;7.50;;;5.95;;
48263;SDS011;34086;51.076;13.722;2023-06-14T03:11:07;7.22;;;5.93;;
48263;SDS011;34086;51.076;13.722;2023-06-14T03:12:09;7.93;;;5.95;;
48263;SDS011;34086;51.076;13.722;2023-06-14T03:13:11;6.25;;;5.63;;
48263;SDS011;34086;51.076;13.722;2023-06-14T03:14:12;8.55;;;6.13;;
48263;SDS011;34086;51.076;13.722;2023-06-14T03:15:13;6.25;;;5.65;;
48263;SDS011;34086;51.076;13.722;2023-06-14T03:16:18;7.07;;;5.60;;
48263;SDS011;34086;51.076;13.722;2023-06-14T03:17:24;6.35;;;5.75;;
48263;SDS011;34086;51.076;13.722;2023-06-14T03:18:31;8.73;;;5.95;;
48263;SDS011;34086;51.076;13.722;2023-06-14T03:19:35;8.60;;;6.15;;
48263;SDS011;34086;51.076;13.722;2023-06-14T03:20:38;7.43;;;6.00;;
48263;SDS011;34086;51.076;13.722;2023-06-14T03:21:40;8.15;;;6.03;;
48263;SDS011;34086;51.076;13.722;2023-06-14T03:22:44;6.15;;;5.55;;
48263;SDS011;34086;51.076;13.722;2023-06-14T03:23:47;6.55;;;5.68;;
48263;SDS011;34086;51.076;13.722;2023-06-14T03:24:48;8.20;;;5.90;;
48263;SDS011;34086;51.076;13.722;2023-06-14T03:25:50;7.57;;;6.00;;
48263;SDS011;34086;51.076;13.722;2023-06-14T03:26:51;7.07;;;6.18;;
48263;SDS011;34086;51.076;13.722;2023-06-14T03:27:52;10.25;;;6.28;;
48263;SDS011;34086;51.076;13.722;2023-06-14T03:28:53;8.35;;;5.78;;
48263;SDS011;34086;51.076;13.722;2023-06-14T03:29:56;8.10;;;6.15;;
48263;SDS011;34086;51.076;13.722;2023-06-14T03:30:57;8.90;;;6.07;;
48263;SDS011;34086;51.076;13.722;2023-06-14T03:31:59;8.13;;;5.95;;
48263;SDS011;34086;51.076;13.722;2023-06-14T03:33:08;7.13;;;6.35;;
48263;SDS011;34086;51.076;13.722;2023-06-14T03:34:12;8.27;;;6.13;;
48263;SDS011;34086;51.076;13.722;2023-06-14T03:35:13;7.75;;;6.28;;
48263;SDS011;34086;51.076;13.722;2023-06-14T03:36:17;8.80;;;6.35;;
48263;SDS011;34086;51.076;13.722;2023-06-14T03:37:18;7.03;;;6.32;;
48263;SDS011;34086;51.076;13.722;2023-06-14T03:38:21;9.27;;;6.45;;
48263;SDS011;34086;51.076;13.722;2023-06-14T03:39:21;6.88;;;6.18;;
48263;SDS011;34086;51.076;13.722;2023-06-14T03:40:22;7.53;;;6.72;;
48263;SDS011;34086;51.076;13.722;2023-06-14T03:41:28;8.65;;;6.80;;
48263;SDS011;34086;51.076;13.722;2023-06-14T03:42:29;7.47;;;6.35;;
48263;SDS011;34086;51.076;13.722;2023-06-14T03:43:29;6.80;;;6.10;;
48263;SDS011;34086;51.076;13.722;2023-06-14T03:44:30;7.68;;;6.45;;
48263;SDS011;34086;51.076;13.722;2023-06-14T03:45:31;8.60;;;6.53;;
48263;SDS011;34086;51.076;13.722;2023-06-14T03:46:32;7.70;;;6.25;;
48263;SDS011;34086;51.076;13.722;2023-06-14T03:47:34;7.78;;;6.32;;
48263;SDS011;34086;51.076;13.722;2023-06-14T03:48:34;8.50;;;6.55;;
48263;SDS011;34086;51.076;13.722;2023-06-14T03:49:36;9.50;;;6.38;;
48263;SDS011;34086;51.076;13.722;2023-06-14T03:50:37;7.50;;;5.93;;
48263;SDS011;34086;51.076;13.722;2023-06-14T03:51:39;7.57;;;6.40;;
48263;SDS011;34086;51.076;13.722;2023-06-14T03:52:40;8.05;;;6.32;;
48263;SDS011;34086;51.076;13.722;2023-06-14T03:53:43;9.20;;;6.70;;
48263;SDS011;34086;51.076;13.722;2023-06-14T03:54:44;6.72;;;6.10;;
48263;SDS011;34086;51.076;13.722;2023-06-14T03:55:46;6.75;;;6.03;;
48263;SDS011;34086;51.076;13.722;2023-06-14T03:56:48;7.97;;;6.18;;
48263;SDS011;34086;51.076;13.722;2023-06-14T03:57:49;11.27;;;6.80;;
48263;SDS011;34086;51.076;13.722;2023-06-14T03:58:51;7.75;;;6.28;;
48263;SDS011;34086;51.076;13.722;2023-06-14T03:59:54;10.45;;;6.70;;
48263;SDS011;34086;51.076;13.722;2023-06-14T04:00:56;8.57;;;6.75;;
48263;SDS011;34086;51.076;13.722;2023-06-14T04:01:58;9.10;;;6.60;;
48263;SDS011;34086;51.076;13.722;2023-06-14T04:02:59;7.18;;;6.43;;
48263;SDS011;34086;51.076;13.722;2023-06-14T04:03:59;7.72;;;6.40;;
48263;SDS011;34086;51.076;13.722;2023-06-14T04:05:01;7.55;;;6.40;;
48263;SDS011;34086;51.076;13.722;2023-06-14T04:06:02;7.45;;;6.40;;
48263;SDS011;34086;51.076;13.722;2023-06-14T04:07:05;9.48;;;6.50;;
48263;SDS011;34086;51.076;13.722;2023-06-14T04:08:06;7.07;;;6.15;;
48263;SDS011;34086;51.076;13.722;2023-06-14T04:09:09;7.35;;;6.45;;
48263;SDS011;34086;51.076;13.722;2023-06-14T04:10:09;6.88;;;6.18;;
48263;SDS011;34086;51.076;13.722;2023-06-14T04:11:10;7.13;;;6.18;;
48263;SDS011;34086;51.076;13.722;2023-06-14T04:12:11;7.95;;;6.70;;
48263;SDS011;34086;51.076;13.722;2023-06-14T04:13:12;7.22;;;6.40;;
48263;SDS011;34086;51.076;13.722;2023-06-14T04:14:13;8.40;;;6.50;;
48263;SDS011;34086;51.076;13.722;2023-06-14T04:15:13;7.85;;;6.15;;
48263;SDS011;34086;51.076;13.722;2023-06-14T04:16:14;10.63;;;6.65;;
48263;SDS011;34086;51.076;13.722;2023-06-14T04:17:15;7.65;;;6.32;;
48263;SDS011;34086;51.076;13.722;2023-06-14T04:18:18;7.93;;;6.00;;
48263;SDS011;34086;51.076;13.722;2023-06-14T04:19:19;8.15;;;6.40;;
48263;SDS011;34086;51.076;13.722;2023-06-14T04:20:20;6.93;;;6.22;;
48263;SDS011;34086;51.076;13.722;2023-06-14T04:21:21;8.68;;;6.60;;
48263;SDS011;34086;51.076;13.722;2023-06-14T04:22:26;8.75;;;6.30;;
48263;SDS011;34086;51.076;13.722;2023-06-14T04:23:32;8.80;;;6.43;;
48263;SDS011;34086;51.076;13.722;2023-06-14T04:24:35;6.60;;;5.93;;
48263;SDS011;34086;51.076;13.722;2023-06-14T04:25:35;8.00;;;6.82;;
48263;SDS011;34086;51.076;13.722;2023-06-14T04:26:36;9.02;;;6.50;;
48263;SDS011;34086;51.076;13.722;2023-06-14T04:27:37;8.23;;;6.22;;
48263;SDS011;34086;51.076;13.722;2023-06-14T04:28:39;7.05;;;5.90;;
48263;SDS011;34086;51.076;13.722;2023-06-14T04:29:41;6.18;;;5.57;;
48263;SDS011;34086;51.076;13.722;2023-06-14T04:30:45;6.63;;;5.80;;
48263;SDS011;34086;51.076;13.722;2023-06-14T04:31:48;7.55;;;5.65;;
48263;SDS011;34086;51.076;13.722;2023-06-14T04:32:49;7.68;;;5.80;;
48263;SDS011;34086;51.076;13.722;2023-06-14T04:33:53;5.95;;;5.35;;
48263;SDS011;34086;51.076;13.722;2023-06-14T04:34:56;8.02;;;5.65;;
48263;SDS011;34086;51.076;13.722;2023-06-14T04:35:58;7.07;;;5.63;;
48263;SDS011;34086;51.076;13.722;2023-06-14T04:37:00;6.60;;;5.28;;
48263;SDS011;34086;51.076;13.722;2023-06-14T04:38:10;6.50;;;5.80;;
48263;SDS011;34086;51.076;13.722;2023-06-14T04:39:11;6.18;;;5.57;;
48263;SDS011;34086;51.076;13.722;2023-06-14T04:40:13;6.55;;;5.47;;
48263;SDS011;34086;51.076;13.722;2023-06-14T04:41:14;8.38;;;5.85;;
48263;SDS011;34086;51.076;13.722;2023-06-14T04:42:16;7.18;;;5.80;;
48263;SDS011;34086;51.076;13.722;2023-06-14T04:43:21;8.55;;;5.63;;
48263;SDS011;34086;51.076;13.722;2023-06-14T04:44:26;6.18;;;5.57;;
48263;SDS011;34086;51.076;13.722;2023-06-14T04:45:30;9.32;;;5.80;;
48263;SDS011;34086;51.076;13.722;2023-06-14T04:46:32;10.10;;;5.95;;
48263;SDS011;34086;51.076;13.722;2023-06-14T04:47:49;8.60;;;6.13;;
48263;SDS011;34086;51.076;13.722;2023-06-14T04:48:51;7.90;;;6.43;;
48263;SDS011;34086;51.076;13.722;2023-06-14T04:49:51;8.00;;;6.13;;
48263;SDS011;34086;51.076;13.722;2023-06-14T04:50:54;8.38;;;5.97;;
48263;SDS011;34086;51.076;13.722;2023-06-14T04:51:56;6.60;;;5.90;;
48263;SDS011;34086;51.076;13.722;2023-06-14T04:53:06;6.70;;;6.00;;
48263;SDS011;34086;51.076;13.722;2023-06-14T04:54:07;8.30;;;5.78;;
48263;SDS011;34086;51.076;13.722;2023-06-14T04:55:10;8.02;;;6.00;;
48263;SDS011;34086;51.076;13.722;2023-06-14T04:56:11;7.47;;;5.65;;
48263;SDS011;34086;51.076;13.722;2023-06-14T04:57:11;7.70;;;5.70;;
48263;SDS011;34086;51.076;13.722;2023-06-14T04:58:14;8.40;;;5.93;;
48263;SDS011;34086;51.076;13.722;2023-06-14T04:59:15;6.93;;;5.88;;
48263;SDS011;34086;51.076;13.722;2023-06-14T05:00:17;8.82;;;6.32;;
48263;SDS011;34086;51.076;13.722;2023-06-14T05:01:18;10.13;;;6.47;;
48263;SDS011;34086;51.076;13.722;2023-06-14T05:02:24;9.27;;;6.05;;
48263;SDS011;34086;51.076;13.722;2023-06-14T05:03:26;9.68;;;5.80;;
48263;SDS011;34086;51.076;13.722;2023-06-14T05:04:27;6.75;;;5.80;;
48263;SDS011;34086;51.076;13.722;2023-06-14T05:05:30;8.73;;;6.05;;
48263;SDS011;34086;51.076;13.722;2023-06-14T05:06:30;7.93;;;5.50;;
48263;SDS011;34086;51.076;13.722;2023-06-14T05:07:31;9.98;;;5.90;;
48263;SDS011;34086;51.076;13.722;2023-06-14T05:08:33;6.25;;;5.60;;
48263;SDS011;34086;51.076;13.722;2023-06-14T05:09:34;8.45;;;5.75;;
48263;SDS011;34086;51.076;13.722;2023-06-14T05:10:36;8.60;;;5.68;;
48263;SDS011;34086;51.076;13.722;2023-06-14T05:11:37;7.57;;;5.53;;
48263;SDS011;34086;51.076;13.722;2023-06-14T05:12:38;7.97;;;5.80;;
48263;SDS011;34086;51.076;13.722;2023-06-14T05:13:40;8.60;;;6.00;;
48263;SDS011;34086;51.076;13.722;2023-06-14T05:14:46;7.65;;;5.97;;
48263;SDS011;34086;51.076;13.722;2023-06-14T05:15:49;7.45;;;6.40;;
48263;SDS011;34086;51.076;13.722;2023-06-14T05:16:50;8.00;;;6.47;;
48263;SDS011;34086;51.076;13.722;2023-06-14T05:17:50;6.88;;;6.18;;
48263;SDS011;34086;51.076;13.722;2023-06-14T05:18:55;8.20;;;6.15;;
48263;SDS011;34086;51.076;13.722;2023-06-14T05:19:55;6.53;;;5.72;;
48263;SDS011;34086;51.076;13.722;2023-06-14T05:20:56;7.80;;;5.80;;
48263;SDS011;34086;51.076;13.722;2023-06-14T05:21:57;7.05;;;5.75;;
48263;SDS011;34086;51.076;13.722;2023-06-14T05:22:57;9.18;;;6.30;;
48263;SDS011;34086;51.076;13.722;2023-06-14T05:23:58;8.23;;;6.03;;
48263;SDS011;34086;51.076;13.722;2023-06-14T05:24:59;9.25;;;6.15;;
48263;SDS011;34086;51.076;13.722;2023-06-14T05:25:59;9.65;;;6.05;;
48263;SDS011;34086;51.076;13.722;2023-06-14T05:27:02;8.30;;;5.88;;
48263;SDS011;34086;51.076;13.722;2023-06-14T05:28:03;6.95;;;6.07;;
48263;SDS011;34086;51.076;13.722;2023-06-14T05:29:04;8.73;;;5.90;;
48263;SDS011;34086;51.076;13.722;2023-06-14T05:30:04;8.82;;;6.18;;
48263;SDS011;34086;51.076;13.722;2023-06-14T05:31:05;8.10;;;5.88;;
48263;SDS011;34086;51.076;13.722;2023-06-14T05:32:06;7.93;;;6.40;;
48263;SDS011;34086;51.076;13.722;2023-06-14T05:33:07;10.23;;;6.60;;
48263;SDS011;34086;51.076;13.722;2023-06-14T05:34:08;8.52;;;6.70;;
48263;SDS011;34086;51.076;13.722;2023-06-14T05:35:09;7.70;;;6.60;;
48263;SDS011;34086;51.076;13.722;2023-06-14T05:36:10;7.78;;;6.43;;
48263;SDS011;34086;51.076;13.722;2023-06-14T05:37:11;9.35;;;6.55;;
48263;SDS011;34086;51.076;13.722;2023-06-14T05:38:11;7.35;;;6.50;;
48263;SDS011;34086;51.076;13.722;2023-06-14T05:39:12;7.70;;;6.90;;
48263;SDS011;34086;51.076;13.722;2023-06-14T05:40:13;8.77;;;6.85;;
48263;SDS011;34086;51.076;13.722;2023-06-14T05:41:14;9.18;;;7.03;;
48263;SDS011;34086;51.076;13.722;2023-06-14T05:42:14;9.30;;;7.03;;
48263;SDS011;34086;51.076;13.722;2023-06-14T05:43:15;7.88;;;6.30;;
48263;SDS011;34086;51.076;13.722;2023-06-14T05:44:15;9.20;;;6.85;;
48263;SDS011;34086;51.076;13.722;2023-06-14T05:45:16;9.93;;;7.28;;
48263;SDS011;34086;51.076;13.722;2023-06-14T05:46:16;9.75;;;6.82;;
48263;SDS011;34086;51.076;13.722;2023-06-14T05:47:22;8.85;;;6.40;;
48263;SDS011;34086;51.076;13.722;2023-06-14T05:48:22;9.73;;;6.93;;
48263;SDS011;34086;51.076;13.722;2023-06-14T05:49:23;9.73;;;7.10;;
48263;SDS011;34086;51.076;13.722;2023-06-14T05:50:23;11.35;;;6.85;;
48263;SDS011;34086;51.076;13.722;2023-06-14T05:51:24;10.55;;;6.63;;
48263;SDS011;34086;51.076;13.722;2023-06-14T05:52:24;7.15;;;6.45;;
48263;SDS011;34086;51.076;13.722;2023-06-14T05:53:25;10.85;;;7.22;;
48263;SDS011;34086;51.076;13.722;2023-06-14T05:54:26;9.15;;;7.07;;
48263;SDS011;34086;51.076;13.722;2023-06-14T05:55:26;8.00;;;6.43;;
48263;SDS011;34086;51.076;13.722;2023-06-14T05:56:27;10.98;;;6.88;;
48263;SDS011;34086;51.076;13.722;2023-06-14T05:57:27;10.27;;;7.80;;
48263;SDS011;34086;51.076;13.722;2023-06-14T05:58:28;9.02;;;6.45;;
48263;SDS011;34086;51.076;13.722;2023-06-14T05:59:29;7.85;;;6.22;;
48263;SDS011;34086;51.076;13.722;2023-06-14T06:00:29;7.80;;;6.38;;
48263;SDS011;34086;51.076;13.722;2023-06-14T06:01:31;11.43;;;6.28;;
48263;SDS011;34086;51.076;13.722;2023-06-14T06:02:33;10.32;;;6.18;;
48263;SDS011;34086;51.076;13.722;2023-06-14T06:03:34;11.32;;;7.05;;
48263;SDS011;34086;51.076;13.722;2023-06-14T06:04:35;7.28;;;6.13;;
48263;SDS011;34086;51.076;13.722;2023-06-14T06:05:36;6.70;;;5.75;;
48263;SDS011;34086;51.076;13.722;2023-06-14T06:06:36;7.88;;;6.15;;
48263;SDS011;34086;51.076;13.722;2023-06-14T06:07:37;10.48;;;6.35;;
48263;SDS011;34086;51.076;13.722;2023-06-14T06:08:40;8.07;;;6.00;;
48263;SDS011;34086;51.076;13.722;2023-06-14T06:09:40;9.75;;;6.05;;